Time,TemperatureF,DewpointF,PressureIn,WindDirection,WindDirectionDegrees,WindSpeedMPH,WindSpeedGustMPH,Humidity,HourlyPrecipIn,Conditions,Clouds,dailyrainin,SoftwareType,DateUTC
2013-05-12 00:01:00,45.2,30.0,30.30,ENE,73,0.0,0.0,55,0.00,CLR,,0.00,WeatherDisplay:10.37,2013-05-12 05:01:00,
2013-05-12 00:06:00,44.8,30.0,30.30,ENE,73,0.0,0.0,56,0.00,CLR,,0.00,WeatherDisplay:10.37,2013-05-12 05:06:00,
2013-05-12 00:11:00,44.4,30.1,30.30,ENE,73,0.0,0.0,57,0.00,CLR,,0.00,WeatherDisplay:10.37,2013-05-12 05:11:00,
2013-05-12 00:16:00,44.0,30.6,30.29,ENE,73,0.0,0.0,59,0.00,CLR,,0.00,WeatherDisplay:10.37,2013-05-12 05:16:00,
2013-05-12 00:21:00,43.5,30.1,30.29,ENE,73,0.0,0.0,59,0.00,CLR,,0.00,WeatherDisplay:10.37,2013-05-12 05:21:00,
2013-05-12 00:26:00,43.1,30.1,30.29,ENE,73,0.0,0.0,60,0.00,CLR,,0.00,WeatherDisplay:10.37,2013-05-12 05:26:00,
2013-05-12 00:31:00,42.8,30.3,30.29,ENE,73,0.0,0.0,61,0.00,CLR,,0.00,WeatherDisplay:10.37,2013-05-12 05:31:00,
2013-05-12 00:36:00,42.5,30.0,30.29,ENE,73,0.0,0.0,61,0.00,CLR,,0.00,WeatherDisplay:10.37,2013-05-12 05:36:00,
2013-05-12 00:41:00,42.0,29.9,30.29,ENE,73,0.0,0.0,62,0.00,CLR,,0.00,WeatherDisplay:10.37,2013-05-12 05:41:00,
2013-05-12 00:46:00,41.8,31.3,30.29,ENE,73,0.0,0.0,66,0.00,CLR,,0.00,WeatherDisplay:10.37,2013-05-12 05:46:00,
2013-05-12 00:51:00,41.6,30.7,30.29,ENE,73,0.0,0.0,65,0.00,CLR,,0.00,WeatherDisplay:10.37,2013-05-12 05:51:00,
2013-05-12 00:56:00,41.3,30.8,30.29,ENE,73,0.0,0.0,66,0.00,CLR,,0.00,WeatherDisplay:10.37,2013-05-12 05:56:00,
2013-05-12 01:01:00,41.0,31.2,30.29,ENE,73,0.0,0.0,68,0.00,CLR,,0.00,WeatherDisplay:10.37,2013-05-12 06:01:00,
2013-05-12 01:06:00,40.7,31.0,30.29,ENE,73,0.0,0.0,68,0.00,CLR,,0.00,WeatherDisplay:10.37,2013-05-12 06:06:00,
2013-05-12 01:11:00,40.4,31.4,30.29,ENE,73,0.0,0.0,70,0.00,CLR,,0.00,WeatherDisplay:10.37,2013-05-12 06:11:00,
2013-05-12 01:16:00,40.1,31.1,30.29,ENE,73,0.0,0.0,70,0.00,CLR,,0.00,WeatherDisplay:10.37,2013-05-12 06:16:00,
2013-05-12 01:21:00,39.9,30.9,30.29,ENE,73,0.0,0.0,70,0.00,CLR,,0.00,WeatherDisplay:10.37,2013-05-12 06:21:00,
2013-05-12 01:26:00,39.5,30.9,30.28,ENE,73,0.0,0.0,71,0.00,CLR,,0.00,WeatherDisplay:10.37,2013-05-12 06:26:00,
2013-05-12 01:31:00,39.1,30.8,30.28,ENE,73,0.0,0.0,72,0.00,CLR,,0.00,WeatherDisplay:10.37,2013-05-12 06:31:00,
2013-05-12 01:36:00,38.9,31.6,30.28,ENE,73,0.0,0.0,75,0.00,CLR,,0.00,WeatherDisplay:10.37,2013-05-12 06:36:00,
2013-05-12 01:41:00,38.8,31.6,30.29,ENE,73,0.0,0.0,75,0.00,CLR,,0.00,WeatherDisplay:10.37,2013-05-12 06:41:00,
2013-05-12 01:46:00,38.8,31.9,30.29,ENE,73,0.0,0.0,76,0.00,CLR,,0.00,WeatherDisplay:10.37,2013-05-12 06:46:00,
2013-05-12 01:51:00,38.9,32.6,30.29,ENE,73,0.0,0.0,78,0.00,CLR,,0.00,WeatherDisplay:10.37,2013-05-12 06:51:00,
2013-05-12 01:56:00,38.8,32.5,30.28,ENE,73,0.0,0.0,78,0.00,CLR,,0.00,WeatherDisplay:10.37,2013-05-12 06:56:00,
2013-05-12 02:01:00,38.6,32.3,30.28,ENE,73,0.0,0.0,78,0.00,CLR,,0.00,WeatherDisplay:10.37,2013-05-12 07:01:00,
2013-05-12 02:06:00,38.3,32.0,30.28,ENE,73,0.0,0.0,78,0.00,CLR,,0.00,WeatherDisplay:10.37,2013-05-12 07:06:00,
2013-05-12 02:11:00,38.2,32.3,30.28,ENE,73,0.0,0.0,79,0.00,CLR,,0.00,WeatherDisplay:10.37,2013-05-12 07:11:00,
2013-05-12 02:16:00,38.1,32.5,30.28,ENE,73,0.0,0.0,80,0.00,CLR,,0.00,WeatherDisplay:10.37,2013-05-12 07:16:00,
2013-05-12 02:22:00,38.0,32.4,30.28,ENE,73,0.0,0.0,80,0.00,CLR,,0.00,WeatherDisplay:10.37,2013-05-12 07:22:00,
2013-05-12 02:27:00,37.8,32.2,30.28,ENE,73,0.0,0.0,80,0.00,CLR,,0.00,WeatherDisplay:10.37,2013-05-12 07:27:00,
2013-05-12 02:32:00,37.6,32.3,30.28,ENE,73,0.0,0.0,81,0.00,CLR,,0.00,WeatherDisplay:10.37,2013-05-12 07:32:00,
2013-05-12 02:37:00,37.5,32.5,30.28,ENE,73,0.0,0.0,82,0.00,CLR,,0.00,WeatherDisplay:10.37,2013-05-12 07:37:00,
2013-05-12 02:42:00,37.3,32.6,30.28,ENE,73,0.0,0.0,83,0.00,CLR,,0.00,WeatherDisplay:10.37,2013-05-12 07:42:00,
2013-05-12 02:47:00,37.0,32.3,30.28,ENE,73,0.0,0.0,83,0.00,CLR,,0.00,WeatherDisplay:10.37,2013-05-12 07:47:00,
2013-05-12 02:52:00,36.8,32.4,30.28,ENE,73,0.0,0.0,84,0.00,CLR,,0.00,WeatherDisplay:10.37,2013-05-12 07:52:00,
2013-05-12 02:57:00,36.7,32.9,30.28,ENE,73,0.0,0.0,86,0.00,CLR,,0.00,WeatherDisplay:10.37,2013-05-12 07:57:00,
2013-05-12 03:02:00,36.8,33.0,30.28,ENE,73,0.0,0.0,86,0.00,CLR,,0.00,WeatherDisplay:10.37,2013-05-12 08:02:00,
2013-05-12 03:07:00,36.8,33.0,30.28,ENE,73,0.0,0.0,86,0.00,CLR,,0.00,WeatherDisplay:10.37,2013-05-12 08:07:00,
2013-05-12 03:12:00,36.6,32.8,30.28,ENE,73,0.0,0.0,86,0.00,CLR,,0.00,WeatherDisplay:10.37,2013-05-12 08:12:00,
2013-05-12 03:17:00,36.5,33.0,30.28,ENE,73,0.0,0.0,87,0.00,CLR,,0.00,WeatherDisplay:10.37,2013-05-12 08:17:00,
2013-05-12 03:22:00,36.3,32.8,30.29,ENE,73,0.0,0.0,87,0.00,CLR,,0.00,WeatherDisplay:10.37,2013-05-12 08:22:00,
2013-05-12 03:27:00,36.1,32.6,30.28,ENE,73,0.0,0.0,87,0.00,CLR,,0.00,WeatherDisplay:10.37,2013-05-12 08:27:00,
2013-05-12 03:32:00,36.0,32.5,30.28,ENE,73,0.0,0.0,87,0.00,CLR,,0.00,WeatherDisplay:10.37,2013-05-12 08:32:00,
2013-05-12 03:37:00,36.0,33.1,30.28,ENE,73,0.0,0.0,89,0.00,CLR,,0.00,WeatherDisplay:10.37,2013-05-12 08:37:00,
2013-05-12 03:42:00,36.1,33.2,30.28,ENE,73,0.0,0.0,89,0.00,CLR,,0.00,WeatherDisplay:10.37,2013-05-12 08:42:00,
2013-05-12 03:47:00,36.1,33.2,30.28,ENE,73,0.0,0.0,89,0.00,CLR,,0.00,WeatherDisplay:10.37,2013-05-12 08:47:00,
2013-05-12 03:52:00,36.1,33.2,30.29,ENE,73,0.0,0.0,89,0.00,CLR,,0.00,WeatherDisplay:10.37,2013-05-12 08:52:00,
2013-05-12 03:57:00,36.1,33.2,30.29,ENE,73,0.0,1.2,89,0.00,CLR,,0.00,WeatherDisplay:10.37,2013-05-12 08:57:00,
2013-05-12 04:02:00,36.1,33.2,30.29,ENE,73,0.0,0.0,89,0.00,CLR,,0.00,WeatherDisplay:10.37,2013-05-12 09:02:00,
2013-05-12 04:07:00,35.9,33.0,30.29,ENE,73,0.0,0.0,89,0.00,CLR,,0.00,WeatherDisplay:10.37,2013-05-12 09:07:00,
2013-05-12 04:12:00,35.7,33.1,30.28,ENE,73,0.0,0.0,90,0.00,CLR,,0.00,WeatherDisplay:10.37,2013-05-12 09:12:00,
2013-05-12 04:17:00,35.7,33.1,30.29,ENE,73,0.0,0.0,90,0.00,CLR,,0.00,WeatherDisplay:10.37,2013-05-12 09:17:00,
2013-05-12 04:22:00,35.6,33.2,30.29,ENE,73,0.0,0.0,91,0.00,CLR,,0.00,WeatherDisplay:10.37,2013-05-12 09:22:00,
2013-05-12 04:27:00,35.5,33.1,30.29,ENE,73,0.0,0.0,91,0.00,CLR,,0.00,WeatherDisplay:10.37,2013-05-12 09:27:00,
2013-05-12 04:32:00,35.4,33.0,30.29,ENE,73,0.0,0.0,91,0.00,CLR,,0.00,WeatherDisplay:10.37,2013-05-12 09:32:00,
2013-05-12 04:37:00,35.5,33.1,30.29,ENE,73,0.0,0.0,91,0.00,CLR,,0.00,WeatherDisplay:10.37,2013-05-12 09:37:00,
2013-05-12 04:42:00,35.5,33.1,30.29,ENE,73,0.0,0.0,91,0.00,CLR,,0.00,WeatherDisplay:10.37,2013-05-12 09:42:00,
2013-05-12 04:47:00,35.4,33.0,30.29,ENE,73,0.0,0.0,91,0.00,CLR,,0.00,WeatherDisplay:10.37,2013-05-12 09:47:00,
2013-05-12 04:52:00,35.3,32.9,30.29,ENE,73,0.0,0.0,91,0.00,CLR,,0.00,WeatherDisplay:10.37,2013-05-12 09:52:00,
2013-05-12 04:57:00,35.1,32.7,30.29,ENE,73,0.0,0.0,91,0.00,CLR,,0.00,WeatherDisplay:10.37,2013-05-12 09:57:00,
2013-05-12 05:02:00,34.9,32.5,30.30,ENE,73,0.0,0.0,91,0.00,CLR,,0.00,WeatherDisplay:10.37,2013-05-12 10:02:00,
2013-05-12 05:07:00,34.8,32.4,30.30,ENE,73,0.0,0.0,91,0.00,CLR,,0.00,WeatherDisplay:10.37,2013-05-12 10:07:00,
2013-05-12 05:12:00,34.7,32.6,30.30,ENE,73,0.0,0.0,92,0.00,CLR,,0.00,WeatherDisplay:10.37,2013-05-12 10:12:00,
2013-05-12 05:17:00,34.8,33.0,30.30,ENE,73,0.0,0.0,93,0.00,CLR,,0.00,WeatherDisplay:10.37,2013-05-12 10:17:00,
2013-05-12 05:22:00,34.8,33.0,30.30,ENE,73,0.0,0.0,93,0.00,CLR,,0.00,WeatherDisplay:10.37,2013-05-12 10:22:00,
2013-05-12 05:27:00,34.9,33.1,30.30,ENE,73,0.0,0.0,93,0.00,CLR,,0.00,WeatherDisplay:10.37,2013-05-12 10:27:00,
2013-05-12 05:32:00,34.8,33.0,30.30,ENE,73,0.0,0.0,93,0.00,CLR,,0.00,WeatherDisplay:10.37,2013-05-12 10:32:00,
2013-05-12 05:37:00,34.7,32.9,30.30,ENE,73,0.0,0.0,93,0.00,CLR,,0.00,WeatherDisplay:10.37,2013-05-12 10:37:00,
2013-05-12 05:42:00,34.5,32.7,30.30,ENE,73,0.0,0.0,93,0.00,CLR,,0.00,WeatherDisplay:10.37,2013-05-12 10:42:00,
2013-05-12 05:47:00,34.5,32.7,30.30,ENE,73,0.0,0.0,93,0.00,CLR,,0.00,WeatherDisplay:10.37,2013-05-12 10:47:00,
2013-05-12 05:52:00,34.3,32.5,30.31,ENE,73,0.0,0.0,93,0.00,CLR,,0.00,WeatherDisplay:10.37,2013-05-12 10:52:00,
2013-05-12 05:57:00,34.3,32.8,30.31,ENE,73,0.0,0.0,94,0.00,CLR,,0.00,WeatherDisplay:10.37,2013-05-12 10:57:00,
2013-05-12 06:02:00,34.4,32.9,30.31,ENE,73,0.0,0.0,94,0.00,CLR,,0.00,WeatherDisplay:10.37,2013-05-12 11:02:00,
2013-05-12 06:07:00,34.3,32.8,30.31,ENE,73,0.0,0.0,94,0.00,CLR,,0.00,WeatherDisplay:10.37,2013-05-12 11:07:00,
2013-05-12 06:12:00,34.3,32.8,30.31,ENE,73,0.0,0.0,94,0.00,CLR,,0.00,WeatherDisplay:10.37,2013-05-12 11:12:00,
2013-05-12 06:17:00,34.2,32.7,30.31,ENE,73,0.0,0.0,94,0.00,CLR,,0.00,WeatherDisplay:10.37,2013-05-12 11:17:00,
2013-05-12 06:22:00,34.1,32.6,30.31,ENE,73,0.0,0.0,94,0.00,CLR,,0.00,WeatherDisplay:10.37,2013-05-12 11:22:00,
2013-05-12 06:27:00,34.1,32.8,30.31,ENE,73,0.0,0.0,95,0.00,CLR,,0.00,WeatherDisplay:10.37,2013-05-12 11:27:00,
2013-05-12 06:32:00,34.3,33.0,30.31,ENE,73,0.0,0.0,95,0.00,CLR,,0.00,WeatherDisplay:10.37,2013-05-12 11:32:00,
2013-05-12 06:37:00,34.2,32.7,30.31,ENE,73,0.0,0.0,94,0.00,CLR,,0.00,WeatherDisplay:10.37,2013-05-12 11:37:00,
2013-05-12 06:42:00,34.2,32.7,30.31,ENE,73,0.0,0.0,94,0.00,CLR,,0.00,WeatherDisplay:10.37,2013-05-12 11:42:00,
2013-05-12 06:47:00,34.3,33.0,30.31,ENE,73,0.0,0.0,95,0.00,CLR,,0.00,WeatherDisplay:10.37,2013-05-12 11:47:00,
2013-05-12 06:52:00,34.7,33.4,30.31,ENE,73,0.0,0.0,95,0.00,CLR,,0.00,WeatherDisplay:10.37,2013-05-12 11:52:00,
2013-05-12 06:57:00,34.9,33.6,30.31,ENE,73,0.0,0.0,95,0.00,CLR,,0.00,WeatherDisplay:10.37,2013-05-12 11:57:00,
2013-05-12 07:02:00,35.2,33.9,30.31,ENE,73,0.0,0.0,95,0.00,FEW,,0.00,WeatherDisplay:10.37,2013-05-12 12:02:00,
2013-05-12 07:07:00,35.5,34.2,30.31,ENE,73,0.0,0.0,95,0.00,FEW,,0.00,WeatherDisplay:10.37,2013-05-12 12:07:00,
2013-05-12 07:12:00,36.0,35.0,30.31,ENE,73,0.0,0.0,96,0.00,FEW,,0.00,WeatherDisplay:10.37,2013-05-12 12:12:00,
2013-05-12 07:17:00,36.6,35.3,30.31,ENE,73,0.0,0.0,95,0.00,FEW,,0.00,WeatherDisplay:10.37,2013-05-12 12:17:00,
2013-05-12 07:22:00,37.1,35.5,30.31,ENE,73,0.0,0.0,94,0.00,FEW,,0.00,WeatherDisplay:10.37,2013-05-12 12:22:00,
2013-05-12 07:27:00,37.5,35.9,30.31,ENE,73,0.0,0.0,94,0.00,FEW,,0.00,WeatherDisplay:10.37,2013-05-12 12:27:00,
2013-05-12 07:32:00,38.1,35.7,30.32,ENE,73,0.0,0.0,91,0.00,FEW,,0.00,WeatherDisplay:10.37,2013-05-12 12:32:00,
2013-05-12 07:37:00,39.1,36.7,30.31,ENE,73,0.0,0.0,91,0.00,FEW,,0.00,WeatherDisplay:10.37,2013-05-12 12:37:00,
2013-05-12 07:42:00,40.1,36.2,30.32,ENE,73,0.2,1.0,86,0.00,FEW,,0.00,WeatherDisplay:10.37,2013-05-12 12:42:00,
2013-05-12 07:47:00,41.0,36.8,30.32,ENE,73,0.2,1.2,85,0.00,FEW,,0.00,WeatherDisplay:10.37,2013-05-12 12:47:00,
2013-05-12 07:52:00,41.9,36.2,30.32,ENE,73,0.0,0.0,80,0.00,FEW,,0.00,WeatherDisplay:10.37,2013-05-12 12:52:00,
2013-05-12 07:57:00,42.5,36.8,30.32,ENE,73,0.0,0.0,80,0.00,FEW,,0.00,WeatherDisplay:10.37,2013-05-12 12:57:00,
2013-05-12 08:02:00,43.0,37.3,30.32,ENE,73,0.0,0.0,80,0.00,FEW,,0.00,WeatherDisplay:10.37,2013-05-12 13:02:00,
2013-05-12 08:07:00,43.5,36.4,30.32,ENE,73,0.0,0.0,76,0.00,FEW,,0.00,WeatherDisplay:10.37,2013-05-12 13:07:00,
2013-05-12 08:12:00,44.2,37.1,30.32,ENE,73,0.0,0.0,76,0.00,FEW,,0.00,WeatherDisplay:10.37,2013-05-12 13:12:00,
2013-05-12 08:17:00,44.8,37.4,30.32,ENE,73,0.0,0.0,75,0.00,FEW,,0.00,WeatherDisplay:10.37,2013-05-12 13:17:00,
2013-05-12 08:22:00,45.4,36.5,30.32,West,264,0.0,1.0,71,0.00,FEW,,0.00,WeatherDisplay:10.37,2013-05-12 13:22:00,
2013-05-12 08:27:00,46.2,35.1,30.32,West,261,0.2,1.2,65,0.00,FEW,,0.00,WeatherDisplay:10.37,2013-05-12 13:27:00,
2013-05-12 08:32:00,46.9,36.5,30.33,West,259,0.2,1.2,67,0.00,FEW,,0.00,WeatherDisplay:10.37,2013-05-12 13:32:00,
2013-05-12 08:37:00,47.6,35.6,30.33,SW,219,0.1,1.0,63,0.00,FEW,,0.00,WeatherDisplay:10.37,2013-05-12 13:37:00,
2013-05-12 08:42:00,48.3,34.6,30.33,WSW,240,0.6,2.3,59,0.00,FEW,,0.00,WeatherDisplay:10.37,2013-05-12 13:42:00,
2013-05-12 08:47:00,49.0,34.4,30.33,SW,234,0.1,1.0,57,0.00,FEW,,0.00,WeatherDisplay:10.37,2013-05-12 13:47:00,
2013-05-12 08:52:00,49.5,33.5,30.33,WSW,245,0.2,1.2,54,0.00,FEW,,0.00,WeatherDisplay:10.37,2013-05-12 13:52:00,
2013-05-12 08:57:00,49.9,33.0,30.33,WSW,249,1.6,2.3,52,0.00,FEW,,0.00,WeatherDisplay:10.37,2013-05-12 13:57:00,
2013-05-12 09:02:00,50.4,33.9,30.33,WSW,249,0.0,0.0,53,0.00,CLR,,0.00,WeatherDisplay:10.37,2013-05-12 14:02:00,
2013-05-12 09:07:00,50.8,32.8,30.33,WSW,255,0.0,0.0,50,0.00,CLR,,0.00,WeatherDisplay:10.37,2013-05-12 14:07:00,
2013-05-12 09:12:00,51.4,32.9,30.33,WSW,256,0.0,1.2,49,0.00,CLR,,0.00,WeatherDisplay:10.37,2013-05-12 14:12:00,
2013-05-12 09:17:00,52.1,33.0,30.33,South,174,0.1,1.2,48,0.00,CLR,,0.00,WeatherDisplay:10.37,2013-05-12 14:17:00,
2013-05-12 09:22:00,52.8,33.6,30.33,SW,233,0.1,1.0,48,0.00,CLR,,0.00,WeatherDisplay:10.37,2013-05-12 14:22:00,
2013-05-12 09:27:00,53.0,33.8,30.33,WNW,282,0.2,1.2,48,0.00,CLR,,0.00,WeatherDisplay:10.37,2013-05-12 14:27:00,
2013-05-12 09:32:00,53.5,32.1,30.32,SE,126,0.5,1.2,44,0.00,CLR,,0.00,WeatherDisplay:10.37,2013-05-12 14:32:00,
2013-05-12 09:37:00,54.0,30.8,30.32,NNE,32,1.7,2.3,41,0.00,CLR,,0.00,WeatherDisplay:10.37,2013-05-12 14:37:00,
2013-05-12 09:42:00,54.4,31.2,30.32,NE,45,0.0,1.2,41,0.00,CLR,,0.00,WeatherDisplay:10.37,2013-05-12 14:42:00,
2013-05-12 09:47:00,55.1,29.3,30.32,WSW,246,0.7,2.3,37,0.00,CLR,,0.00,WeatherDisplay:10.37,2013-05-12 14:47:00,
2013-05-12 09:52:00,55.8,27.8,30.32,SE,124,0.9,2.3,34,0.00,CLR,,0.00,WeatherDisplay:10.37,2013-05-12 14:52:00,
2013-05-12 09:57:00,56.0,29.4,30.32,NW,325,0.0,0.0,36,0.00,CLR,,0.00,WeatherDisplay:10.37,2013-05-12 14:57:00,
2013-05-12 10:02:00,56.3,29.7,30.32,ESE,108,0.3,1.2,36,0.00,CLR,,0.00,WeatherDisplay:10.37,2013-05-12 15:02:00,
2013-05-12 10:07:00,56.2,29.6,30.32,WSW,250,0.2,1.2,36,0.00,CLR,,0.00,WeatherDisplay:10.37,2013-05-12 15:07:00,
2013-05-12 10:12:00,56.7,29.3,30.32,NE,41,0.8,1.2,35,0.00,CLR,,0.00,WeatherDisplay:10.37,2013-05-12 15:12:00,
2013-05-12 10:17:00,57.1,27.5,30.31,WSW,250,1.3,3.5,32,0.00,CLR,,0.00,WeatherDisplay:10.37,2013-05-12 15:17:00,
2013-05-12 10:22:00,56.9,29.5,30.31,West,278,0.1,1.2,35,0.00,CLR,,0.00,WeatherDisplay:10.37,2013-05-12 15:22:00,
2013-05-12 10:27:00,56.8,25.7,30.31,WNW,283,1.1,3.5,30,0.00,CLR,,0.00,WeatherDisplay:10.37,2013-05-12 15:27:00,
2013-05-12 10:32:00,57.1,27.5,30.32,WNW,285,1.0,2.0,32,0.00,CLR,,0.00,WeatherDisplay:10.37,2013-05-12 15:32:00,
2013-05-12 10:37:00,57.6,29.4,30.31,South,186,0.7,2.3,34,0.00,CLR,,0.00,WeatherDisplay:10.37,2013-05-12 15:37:00,
2013-05-12 10:42:00,58.4,30.1,30.31,WSW,258,0.3,1.2,34,0.00,CLR,,0.00,WeatherDisplay:10.37,2013-05-12 15:42:00,
2013-05-12 10:47:00,58.8,27.4,30.31,ESE,107,1.1,2.3,30,0.00,CLR,,0.00,WeatherDisplay:10.37,2013-05-12 15:47:00,
2013-05-12 10:52:00,59.2,30.8,30.31,South,179,0.8,2.3,34,0.00,CLR,,0.00,WeatherDisplay:10.37,2013-05-12 15:52:00,
2013-05-12 10:57:00,60.1,30.1,30.31,SSE,150,0.8,3.5,32,0.00,CLR,,0.00,WeatherDisplay:10.37,2013-05-12 15:57:00,
2013-05-12 11:02:00,60.4,31.9,30.31,WSW,252,0.1,1.2,34,0.00,FEW,,0.00,WeatherDisplay:10.37,2013-05-12 16:02:00,
2013-05-12 11:07:00,61.0,28.5,30.31,SSE,160,1.0,2.0,29,0.00,FEW,,0.00,WeatherDisplay:10.37,2013-05-12 16:07:00,
2013-05-12 11:12:00,60.4,26.2,30.31,SW,234,2.5,3.5,27,0.00,FEW,,0.00,WeatherDisplay:10.37,2013-05-12 16:12:00,
2013-05-12 11:17:00,60.0,28.4,30.32,SSW,210,0.2,3.5,30,0.00,FEW,,0.00,WeatherDisplay:10.37,2013-05-12 16:17:00,
2013-05-12 11:22:00,60.2,27.8,30.31,WNW,300,1.1,2.3,29,0.00,FEW,,0.00,WeatherDisplay:10.37,2013-05-12 16:22:00,
2013-05-12 11:27:00,60.4,29.6,30.31,NNE,23,0.6,4.0,31,0.00,FEW,,0.00,WeatherDisplay:10.37,2013-05-12 16:27:00,
2013-05-12 11:32:00,60.3,26.1,30.31,NW,319,0.0,1.2,27,0.00,FEW,,0.00,WeatherDisplay:10.37,2013-05-12 16:32:00,
2013-05-12 11:37:00,61.1,28.6,30.31,NW,325,0.1,1.2,29,0.00,FEW,,0.00,WeatherDisplay:10.37,2013-05-12 16:37:00,
2013-05-12 11:42:00,61.5,26.3,30.31,NNW,338,0.8,3.0,26,0.00,FEW,,0.00,WeatherDisplay:10.37,2013-05-12 16:42:00,
2013-05-12 11:47:00,61.8,26.5,30.30,West,259,2.4,5.0,26,0.00,FEW,,0.00,WeatherDisplay:10.37,2013-05-12 16:47:00,
2013-05-12 11:52:00,61.1,26.8,30.30,WSW,243,1.3,3.5,27,0.00,FEW,,0.00,WeatherDisplay:10.37,2013-05-12 16:52:00,
2013-05-12 11:57:00,61.7,30.7,30.30,SSE,152,0.6,1.2,31,0.00,FEW,,0.00,WeatherDisplay:10.37,2013-05-12 16:57:00,
2013-05-12 12:02:00,62.8,32.5,30.30,SE,145,0.1,1.2,32,0.00,SCT,,0.00,WeatherDisplay:10.37,2013-05-12 17:02:00,
2013-05-12 12:07:00,63.5,30.6,30.29,ENE,68,0.2,1.2,29,0.00,SCT,,0.00,WeatherDisplay:10.37,2013-05-12 17:07:00,
2013-05-12 12:12:00,63.8,30.0,30.29,WSW,251,0.2,1.2,28,0.00,SCT,,0.00,WeatherDisplay:10.37,2013-05-12 17:12:00,
2013-05-12 12:17:00,64.3,27.7,30.29,East,101,0.9,3.5,25,0.00,SCT,,0.00,WeatherDisplay:10.37,2013-05-12 17:17:00,
2013-05-12 12:22:00,64.5,32.4,30.28,WSW,255,1.5,3.0,30,0.00,SCT,,0.00,WeatherDisplay:10.37,2013-05-12 17:22:00,
2013-05-12 12:27:00,64.5,28.8,30.28,East,88,0.3,1.2,26,0.00,SCT,,0.00,WeatherDisplay:10.37,2013-05-12 17:27:00,
2013-05-12 12:32:00,64.6,27.9,30.28,WSW,250,1.6,2.3,25,0.00,SCT,,0.00,WeatherDisplay:10.37,2013-05-12 17:32:00,
2013-05-12 12:37:00,63.3,26.8,30.28,NW,304,3.0,5.8,25,0.00,SCT,,0.00,WeatherDisplay:10.37,2013-05-12 17:37:00,
2013-05-12 12:42:00,63.2,26.8,30.27,ESE,105,1.7,3.5,25,0.00,SCT,,0.00,WeatherDisplay:10.37,2013-05-12 17:42:00,
2013-05-12 12:47:00,63.6,27.1,30.27,SE,127,1.0,2.3,25,0.00,SCT,,0.00,WeatherDisplay:10.37,2013-05-12 17:47:00,
2013-05-12 12:52:00,63.4,26.9,30.27,ESE,109,2.3,3.5,25,0.00,SCT,,0.00,WeatherDisplay:10.37,2013-05-12 17:52:00,
2013-05-12 12:57:00,63.3,27.8,30.26,NE,50,1.8,4.6,26,0.00,SCT,,0.00,WeatherDisplay:10.37,2013-05-12 17:57:00,
2013-05-12 13:02:00,63.9,31.0,30.26,SW,217,0.9,3.5,29,0.00,CLR,,0.00,WeatherDisplay:10.37,2013-05-12 18:02:00,
2013-05-12 13:07:00,64.4,27.8,30.26,WSW,257,3.0,3.5,25,0.00,CLR,,0.00,WeatherDisplay:10.37,2013-05-12 18:07:00,
2013-05-12 13:12:00,64.1,28.5,30.26,West,265,0.3,1.2,26,0.00,CLR,,0.00,WeatherDisplay:10.37,2013-05-12 18:12:00,
2013-05-12 13:17:00,65.3,30.4,30.26,East,93,0.7,1.2,27,0.00,CLR,,0.00,WeatherDisplay:10.37,2013-05-12 18:17:00,
2013-05-12 13:22:00,65.3,30.4,30.25,SE,134,0.4,1.2,27,0.00,CLR,,0.00,WeatherDisplay:10.37,2013-05-12 18:22:00,
2013-05-12 13:27:00,65.8,32.6,30.25,ESE,105,0.9,2.3,29,0.00,CLR,,0.00,WeatherDisplay:10.37,2013-05-12 18:27:00,
2013-05-12 13:32:00,65.6,31.6,30.24,ESE,121,1.0,3.5,28,0.00,CLR,,0.00,WeatherDisplay:10.37,2013-05-12 18:32:00,
2013-05-12 13:37:00,65.7,27.9,30.24,North,357,1.0,3.5,24,0.00,CLR,,0.00,WeatherDisplay:10.37,2013-05-12 18:37:00,
2013-05-12 13:43:00,65.8,28.0,30.24,SE,136,1.2,3.5,24,0.00,CLR,,0.00,WeatherDisplay:10.37,2013-05-12 18:43:00,
2013-05-12 13:48:00,65.9,28.1,30.24,ESE,105,2.0,3.5,24,0.00,CLR,,0.00,WeatherDisplay:10.37,2013-05-12 18:48:00,
2013-05-12 13:53:00,66.3,28.4,30.24,SSW,207,0.6,2.3,24,0.00,CLR,,0.00,WeatherDisplay:10.37,2013-05-12 18:53:00,
2013-05-12 13:58:00,66.8,34.3,30.24,SE,124,1.2,2.0,30,0.00,CLR,,0.00,WeatherDisplay:10.37,2013-05-12 18:58:00,
2013-05-12 14:03:00,66.9,30.9,30.24,NE,35,0.9,2.3,26,0.00,CLR,,0.00,WeatherDisplay:10.37,2013-05-12 19:03:00,
2013-05-12 14:08:00,66.5,30.5,30.24,NE,53,0.9,1.2,26,0.00,CLR,,0.00,WeatherDisplay:10.37,2013-05-12 19:08:00,
2013-05-12 14:13:00,66.0,31.0,30.24,NNE,22,1.9,4.0,27,0.00,CLR,,0.00,WeatherDisplay:10.37,2013-05-12 19:13:00,
2013-05-12 14:18:00,65.5,29.7,30.24,North,349,2.0,3.0,26,0.00,CLR,,0.00,WeatherDisplay:10.37,2013-05-12 19:18:00,
2013-05-12 14:23:00,65.1,28.4,30.23,North,5,2.0,3.5,25,0.00,CLR,,0.00,WeatherDisplay:10.37,2013-05-12 19:23:00,
2013-05-12 14:28:00,65.0,30.2,30.23,West,275,1.2,1.2,27,0.00,CLR,,0.00,WeatherDisplay:10.37,2013-05-12 19:28:00,
2013-05-12 14:33:00,65.2,30.3,30.24,ENE,71,0.2,1.2,27,0.00,CLR,,0.00,WeatherDisplay:10.37,2013-05-12 19:33:00,
2013-05-12 14:38:00,65.5,32.4,30.23,West,261,0.1,1.2,29,0.00,CLR,,0.00,WeatherDisplay:10.37,2013-05-12 19:38:00,
2013-05-12 14:43:00,66.3,30.4,30.23,SSW,202,1.0,3.5,26,0.00,CLR,,0.00,WeatherDisplay:10.37,2013-05-12 19:43:00,
2013-05-12 14:48:00,66.8,32.6,30.23,SE,143,1.9,3.5,28,0.00,CLR,,0.00,WeatherDisplay:10.37,2013-05-12 19:48:00,
2013-05-12 14:53:00,67.4,35.7,30.22,ESE,111,1.0,1.2,31,0.00,CLR,,0.00,WeatherDisplay:10.37,2013-05-12 19:53:00,
2013-05-12 14:58:00,67.4,32.2,30.22,East,79,0.6,2.3,27,0.00,CLR,,0.00,WeatherDisplay:10.37,2013-05-12 19:58:00,
2013-05-12 15:03:00,67.6,30.5,30.22,NNW,332,2.1,3.5,25,0.00,BKN,,0.00,WeatherDisplay:10.37,2013-05-12 20:03:00,
2013-05-12 15:08:00,68.0,35.4,30.22,East,86,2.2,2.3,30,0.00,BKN,,0.00,WeatherDisplay:10.37,2013-05-12 20:08:00,
2013-05-12 15:13:00,68.4,31.2,30.22,ESE,116,0.8,2.3,25,0.00,BKN,,0.00,WeatherDisplay:10.37,2013-05-12 20:13:00,
2013-05-12 15:18:00,68.5,33.2,30.22,ESE,115,2.1,3.5,27,0.00,BKN,,0.00,WeatherDisplay:10.37,2013-05-12 20:18:00,
2013-05-12 15:23:00,68.1,32.8,30.21,North,7,1.8,4.6,27,0.00,BKN,,0.00,WeatherDisplay:10.37,2013-05-12 20:23:00,
2013-05-12 15:28:00,68.2,34.7,30.21,SE,124,1.0,4.0,29,0.00,BKN,,0.00,WeatherDisplay:10.37,2013-05-12 20:28:00,
2013-05-12 15:33:00,68.1,31.9,30.21,SSW,213,0.8,2.3,26,0.00,BKN,,0.00,WeatherDisplay:10.37,2013-05-12 20:33:00,
2013-05-12 15:38:00,68.2,33.8,30.21,SW,236,0.5,2.3,28,0.00,BKN,,0.00,WeatherDisplay:10.37,2013-05-12 20:38:00,
2013-05-12 15:43:00,68.3,32.1,30.21,NNW,347,1.9,3.5,26,0.00,BKN,,0.00,WeatherDisplay:10.37,2013-05-12 20:43:00,
2013-05-12 15:48:00,68.6,35.1,30.21,South,181,0.0,0.0,29,0.00,BKN,,0.00,WeatherDisplay:10.37,2013-05-12 20:48:00,
2013-05-12 15:53:00,69.4,35.7,30.20,SE,131,0.8,2.3,29,0.00,BKN,,0.00,WeatherDisplay:10.37,2013-05-12 20:53:00,
2013-05-12 15:58:00,69.5,32.1,30.20,SE,125,1.2,2.3,25,0.00,BKN,,0.00,WeatherDisplay:10.37,2013-05-12 20:58:00,
2013-05-12 16:03:00,69.8,34.3,30.20,SE,144,3.2,6.0,27,0.00,FEW,,0.00,WeatherDisplay:10.37,2013-05-12 21:03:00,
2013-05-12 16:08:00,68.8,34.3,30.20,South,191,0.7,3.5,28,0.00,FEW,,0.00,WeatherDisplay:10.37,2013-05-12 21:08:00,
2013-05-12 16:13:00,68.2,32.9,30.20,WSW,248,0.2,2.3,27,0.00,FEW,,0.00,WeatherDisplay:10.37,2013-05-12 21:13:00,
2013-05-12 16:18:00,68.1,33.7,30.19,ENE,58,0.2,1.2,28,0.00,FEW,,0.00,WeatherDisplay:10.37,2013-05-12 21:18:00,
2013-05-12 16:23:00,68.2,35.6,30.19,South,175,0.8,2.0,30,0.00,FEW,,0.00,WeatherDisplay:10.37,2013-05-12 21:23:00,
2013-05-12 16:28:00,68.0,33.7,30.19,ESE,104,0.5,2.3,28,0.00,FEW,,0.00,WeatherDisplay:10.37,2013-05-12 21:28:00,
2013-05-12 16:33:00,67.5,33.2,30.19,SW,226,0.7,2.3,28,0.00,FEW,,0.00,WeatherDisplay:10.37,2013-05-12 21:33:00,
2013-05-12 16:38:00,67.4,34.9,30.18,NNW,338,0.4,2.3,30,0.00,FEW,,0.00,WeatherDisplay:10.37,2013-05-12 21:38:00,
2013-05-12 16:43:00,67.8,36.0,30.18,SE,132,0.7,3.5,31,0.00,FEW,,0.00,WeatherDisplay:10.37,2013-05-12 21:43:00,
2013-05-12 16:48:00,68.1,36.3,30.18,WSW,242,0.3,1.2,31,0.00,FEW,,0.00,WeatherDisplay:10.37,2013-05-12 21:48:00,
2013-05-12 16:53:00,67.7,35.1,30.18,WSW,245,1.2,3.5,30,0.00,FEW,,0.00,WeatherDisplay:10.37,2013-05-12 21:53:00,
2013-05-12 16:58:00,67.8,33.5,30.18,SW,233,0.9,2.3,28,0.00,FEW,,0.00,WeatherDisplay:10.37,2013-05-12 21:58:00,
2013-05-12 17:03:00,67.5,35.0,30.18,South,178,0.8,3.5,30,0.00,BKN,,0.00,WeatherDisplay:10.37,2013-05-12 22:03:00,
2013-05-12 17:08:00,67.3,34.8,30.18,ESE,103,0.3,1.2,30,0.00,BKN,,0.00,WeatherDisplay:10.37,2013-05-12 22:08:00,
2013-05-12 17:13:00,66.8,34.3,30.18,ESE,122,0.0,1.2,30,0.00,BKN,,0.00,WeatherDisplay:10.37,2013-05-12 22:13:00,
2013-05-12 17:18:00,66.7,35.1,30.18,SW,227,0.0,1.2,31,0.00,BKN,,0.00,WeatherDisplay:10.37,2013-05-12 22:18:00,
2013-05-12 17:23:00,66.8,35.2,30.18,SW,226,0.0,1.2,31,0.00,BKN,,0.00,WeatherDisplay:10.37,2013-05-12 22:23:00,
2013-05-12 17:28:00,66.9,37.6,30.18,WSW,252,0.0,1.2,34,0.00,BKN,,0.00,WeatherDisplay:10.37,2013-05-12 22:28:00,
2013-05-12 17:33:00,67.0,36.9,30.18,SSW,195,0.1,1.2,33,0.00,BKN,,0.00,WeatherDisplay:10.37,2013-05-12 22:33:00,
2013-05-12 17:38:00,67.0,35.3,30.18,WSW,238,1.0,2.3,31,0.00,BKN,,0.00,WeatherDisplay:10.37,2013-05-12 22:38:00,
2013-05-12 17:43:00,66.9,36.1,30.18,SSW,211,0.9,2.3,32,0.00,BKN,,0.00,WeatherDisplay:10.37,2013-05-12 22:43:00,
2013-05-12 17:48:00,66.9,33.6,30.18,West,271,1.3,2.3,29,0.00,BKN,,0.00,WeatherDisplay:10.37,2013-05-12 22:48:00,
2013-05-12 17:53:00,66.7,34.3,30.18,SSW,199,0.6,3.5,30,0.00,BKN,,0.00,WeatherDisplay:10.37,2013-05-12 22:53:00,
2013-05-12 17:58:00,66.7,35.1,30.18,SSW,210,1.7,2.3,31,0.00,BKN,,0.00,WeatherDisplay:10.37,2013-05-12 22:58:00,
2013-05-12 18:03:00,66.6,35.8,30.17,WSW,253,1.1,2.3,32,0.00,BKN,,0.00,WeatherDisplay:10.37,2013-05-12 23:03:00,
2013-05-12 18:08:00,66.6,35.8,30.17,NNW,345,0.3,1.2,32,0.00,BKN,,0.00,WeatherDisplay:10.37,2013-05-12 23:08:00,
2013-05-12 18:13:00,66.7,37.4,30.17,South,188,1.2,3.5,34,0.00,BKN,,0.00,WeatherDisplay:10.37,2013-05-12 23:13:00,
2013-05-12 18:18:00,66.3,36.3,30.17,West,271,0.4,2.3,33,0.00,BKN,,0.00,WeatherDisplay:10.37,2013-05-12 23:18:00,
2013-05-12 18:23:00,65.8,36.6,30.17,SW,233,0.5,2.3,34,0.00,BKN,,0.00,WeatherDisplay:10.37,2013-05-12 23:23:00,
2013-05-12 18:28:00,65.6,37.2,30.17,WSW,252,0.5,1.2,35,0.00,BKN,,0.00,WeatherDisplay:10.37,2013-05-12 23:28:00,
2013-05-12 18:33:00,65.6,36.5,30.17,NNE,32,0.1,1.2,34,0.00,BKN,,0.00,WeatherDisplay:10.37,2013-05-12 23:33:00,
2013-05-12 18:38:00,65.5,36.4,30.17,SSW,202,1.3,2.3,34,0.00,BKN,,0.00,WeatherDisplay:10.37,2013-05-12 23:38:00,
2013-05-12 18:43:00,65.5,36.4,30.17,West,281,0.4,1.2,34,0.00,BKN,,0.00,WeatherDisplay:10.37,2013-05-12 23:43:00,
2013-05-12 18:48:00,65.3,35.4,30.17,SW,224,0.7,1.2,33,0.00,BKN,,0.00,WeatherDisplay:10.37,2013-05-12 23:48:00,
2013-05-12 18:53:00,65.2,36.8,30.17,WSW,244,1.2,5.0,35,0.00,BKN,,0.00,WeatherDisplay:10.37,2013-05-12 23:53:00,
2013-05-12 18:58:00,65.1,38.2,30.16,South,179,0.4,2.3,37,0.00,BKN,,0.00,WeatherDisplay:10.37,2013-05-12 23:58:00,
2013-05-12 19:03:00,65.1,39.5,30.16,SSE,165,0.8,2.3,39,0.00,BKN,,0.00,WeatherDisplay:10.37,2013-05-13 00:03:00,
2013-05-12 19:08:00,64.9,39.3,30.16,SSE,157,0.8,2.3,39,0.00,BKN,,0.00,WeatherDisplay:10.37,2013-05-13 00:08:00,
2013-05-12 19:13:00,64.7,41.1,30.16,WSW,257,1.0,2.3,42,0.00,BKN,,0.00,WeatherDisplay:10.37,2013-05-13 00:13:00,
2013-05-12 19:18:00,64.3,40.1,30.16,SW,217,1.3,2.3,41,0.00,BKN,,0.00,WeatherDisplay:10.37,2013-05-13 00:18:00,
2013-05-12 19:23:00,64.1,39.9,30.16,SSW,202,0.1,1.2,41,0.00,BKN,,0.00,WeatherDisplay:10.37,2013-05-13 00:23:00,
2013-05-12 19:28:00,63.9,39.1,30.16,SSE,168,0.8,2.3,40,0.00,BKN,,0.00,WeatherDisplay:10.37,2013-05-13 00:28:00,
2013-05-12 19:33:00,63.7,40.2,30.16,SSE,155,0.4,1.2,42,0.00,BKN,,0.00,WeatherDisplay:10.37,2013-05-13 00:33:00,
2013-05-12 19:38:00,63.4,40.5,30.16,SSE,158,0.4,1.2,43,0.00,BKN,,0.00,WeatherDisplay:10.37,2013-05-13 00:38:00,
2013-05-12 19:43:00,63.1,39.6,30.16,South,174,0.3,1.2,42,0.00,BKN,,0.00,WeatherDisplay:10.37,2013-05-13 00:43:00,
2013-05-12 19:48:00,62.8,40.5,30.15,SSE,149,0.1,1.2,44,0.00,BKN,,0.00,WeatherDisplay:10.37,2013-05-13 00:48:00,
2013-05-12 19:53:00,62.5,40.3,30.16,SSE,148,0.4,2.3,44,0.00,BKN,,0.00,WeatherDisplay:10.37,2013-05-13 00:53:00,
2013-05-12 19:58:00,62.2,40.6,30.16,SW,224,0.0,0.0,45,0.00,BKN,,0.00,WeatherDisplay:10.37,2013-05-13 00:58:00,
2013-05-12 20:03:00,61.8,40.8,30.16,WSW,244,0.0,0.0,46,0.00,FEW,,0.00,WeatherDisplay:10.37,2013-05-13 01:03:00,
2013-05-12 20:08:00,61.4,39.9,30.16,WSW,244,0.0,0.0,45,0.00,FEW,,0.00,WeatherDisplay:10.37,2013-05-13 01:08:00,
2013-05-12 20:13:00,61.1,40.1,30.16,WSW,244,0.0,0.0,46,0.00,FEW,,0.00,WeatherDisplay:10.37,2013-05-13 01:13:00,
2013-05-12 20:18:00,60.6,40.2,30.16,WSW,244,0.0,0.0,47,0.00,FEW,,0.00,WeatherDisplay:10.37,2013-05-13 01:18:00,
2013-05-12 20:23:00,60.0,40.2,30.16,WSW,244,0.0,0.0,48,0.00,FEW,,0.00,WeatherDisplay:10.37,2013-05-13 01:23:00,
2013-05-12 20:28:00,59.3,40.1,30.17,WSW,244,0.0,0.0,49,0.00,FEW,,0.00,WeatherDisplay:10.37,2013-05-13 01:28:00,
2013-05-12 20:33:00,58.7,40.6,30.17,WSW,244,0.0,0.0,51,0.00,FEW,,0.00,WeatherDisplay:10.37,2013-05-13 01:33:00,
2013-05-12 20:38:00,58.2,41.1,30.17,WSW,244,0.0,0.0,53,0.00,FEW,,0.00,WeatherDisplay:10.37,2013-05-13 01:38:00,
2013-05-12 20:43:00,57.7,40.7,30.17,WSW,244,0.0,0.0,53,0.00,FEW,,0.00,WeatherDisplay:10.37,2013-05-13 01:43:00,
2013-05-12 20:48:00,57.3,40.8,30.17,WSW,244,0.0,0.0,54,0.00,FEW,,0.00,WeatherDisplay:10.37,2013-05-13 01:48:00,
2013-05-12 20:53:00,56.8,41.3,30.17,WSW,244,0.0,0.0,56,0.00,FEW,,0.00,WeatherDisplay:10.37,2013-05-13 01:53:00,
2013-05-12 20:58:00,56.4,40.9,30.17,WSW,244,0.0,0.0,56,0.00,FEW,,0.00,WeatherDisplay:10.37,2013-05-13 01:58:00,
2013-05-12 21:03:00,56.0,41.4,30.18,WSW,244,0.0,0.0,58,0.00,CLR,,0.00,WeatherDisplay:10.37,2013-05-13 02:03:00,
2013-05-12 21:08:00,55.8,41.7,30.18,WSW,244,0.0,0.0,59,0.00,CLR,,0.00,WeatherDisplay:10.37,2013-05-13 02:08:00,
2013-05-12 21:13:00,55.5,41.8,30.18,WSW,244,0.0,0.0,60,0.00,CLR,,0.00,WeatherDisplay:10.37,2013-05-13 02:13:00,
2013-05-12 21:18:00,55.1,41.5,30.18,WSW,244,0.0,0.0,60,0.00,CLR,,0.00,WeatherDisplay:10.37,2013-05-13 02:18:00,
2013-05-12 21:23:00,54.7,41.5,30.18,WSW,244,0.0,0.0,61,0.00,CLR,,0.00,WeatherDisplay:10.37,2013-05-13 02:23:00,
2013-05-12 21:28:00,54.3,41.6,30.18,WSW,244,0.0,0.0,62,0.00,CLR,,0.00,WeatherDisplay:10.37,2013-05-13 02:28:00,
2013-05-12 21:33:00,54.1,42.2,30.18,WSW,244,0.0,0.0,64,0.00,CLR,,0.00,WeatherDisplay:10.37,2013-05-13 02:33:00,
2013-05-12 21:38:00,53.8,41.9,30.18,WSW,244,0.0,0.0,64,0.00,CLR,,0.00,WeatherDisplay:10.37,2013-05-13 02:38:00,
2013-05-12 21:43:00,53.5,42.0,30.18,WSW,244,0.0,0.0,65,0.00,CLR,,0.00,WeatherDisplay:10.37,2013-05-13 02:43:00,
2013-05-12 21:48:00,53.3,42.2,30.18,WSW,244,0.0,0.0,66,0.00,CLR,,0.00,WeatherDisplay:10.37,2013-05-13 02:48:00,
2013-05-12 21:53:00,53.2,42.1,30.18,WSW,244,0.0,0.0,66,0.00,CLR,,0.00,WeatherDisplay:10.37,2013-05-13 02:53:00,
2013-05-12 21:58:00,52.9,42.2,30.18,WSW,244,0.0,0.0,67,0.00,CLR,,0.00,WeatherDisplay:10.37,2013-05-13 02:58:00,
2013-05-12 22:03:00,52.6,42.3,30.18,WSW,244,0.0,0.0,68,0.00,CLR,,0.00,WeatherDisplay:10.37,2013-05-13 03:03:00,
2013-05-12 22:08:00,52.6,42.3,30.18,WSW,244,0.0,0.0,68,0.00,CLR,,0.00,WeatherDisplay:10.37,2013-05-13 03:08:00,
2013-05-12 22:13:00,52.5,42.2,30.18,WSW,244,0.0,0.0,68,0.00,CLR,,0.00,WeatherDisplay:10.37,2013-05-13 03:13:00,
2013-05-12 22:18:00,52.3,42.0,30.18,WSW,244,0.0,0.0,68,0.00,CLR,,0.00,WeatherDisplay:10.37,2013-05-13 03:18:00,
2013-05-12 22:23:00,52.2,42.3,30.18,WSW,244,0.0,0.0,69,0.00,CLR,,0.00,WeatherDisplay:10.37,2013-05-13 03:23:00,
2013-05-12 22:28:00,52.0,42.1,30.18,WSW,244,0.0,0.0,69,0.00,CLR,,0.00,WeatherDisplay:10.37,2013-05-13 03:28:00,
2013-05-12 22:33:00,51.8,42.3,30.18,WSW,244,0.0,0.0,70,0.00,CLR,,0.00,WeatherDisplay:10.37,2013-05-13 03:33:00,
2013-05-12 22:38:00,51.7,42.6,30.18,WSW,244,0.0,0.0,71,0.00,CLR,,0.00,WeatherDisplay:10.37,2013-05-13 03:38:00,
2013-05-12 22:43:00,51.4,42.3,30.18,WSW,244,0.0,0.0,71,0.00,CLR,,0.00,WeatherDisplay:10.37,2013-05-13 03:43:00,
2013-05-12 22:48:00,51.3,42.2,30.18,WSW,244,0.0,0.0,71,0.00,CLR,,0.00,WeatherDisplay:10.37,2013-05-13 03:48:00,
2013-05-12 22:53:00,51.3,42.6,30.18,WSW,244,0.0,0.0,72,0.00,CLR,,0.00,WeatherDisplay:10.37,2013-05-13 03:53:00,
2013-05-12 22:58:00,51.3,42.6,30.18,WSW,244,0.0,0.0,72,0.00,CLR,,0.00,WeatherDisplay:10.37,2013-05-13 03:58:00,
2013-05-12 23:01:00,51.3,42.6,30.18,WSW,244,0.0,0.0,72,0.00,CLR,,0.00,WeatherDisplay:10.37,2013-05-13 04:01:00,
2013-05-12 23:06:00,51.0,42.6,30.18,WSW,244,0.0,0.0,73,0.00,CLR,,0.00,WeatherDisplay:10.37,2013-05-13 04:06:00,
2013-05-12 23:11:00,50.6,42.3,30.18,WSW,244,0.0,0.0,73,0.00,CLR,,0.00,WeatherDisplay:10.37,2013-05-13 04:11:00,
2013-05-12 23:16:00,50.3,42.3,30.18,WSW,244,0.0,0.0,74,0.00,CLR,,0.00,WeatherDisplay:10.37,2013-05-13 04:16:00,
2013-05-12 23:21:00,50.0,42.4,30.19,WSW,244,0.0,0.0,75,0.00,CLR,,0.00,WeatherDisplay:10.37,2013-05-13 04:21:00,
2013-05-12 23:26:00,49.8,42.2,30.18,WSW,244,0.0,0.0,75,0.00,CLR,,0.00,WeatherDisplay:10.37,2013-05-13 04:26:00,
2013-05-12 23:31:00,49.5,42.6,30.18,WSW,244,0.0,0.0,77,0.00,CLR,,0.00,WeatherDisplay:10.37,2013-05-13 04:31:00,
2013-05-12 23:36:00,49.3,42.4,30.18,WSW,244,0.0,0.0,77,0.00,CLR,,0.00,WeatherDisplay:10.37,2013-05-13 04:36:00,
2013-05-12 23:41:00,49.0,42.4,30.18,WSW,244,0.0,0.0,78,0.00,CLR,,0.00,WeatherDisplay:10.37,2013-05-13 04:41:00,
2013-05-12 23:46:00,48.7,42.5,30.18,WSW,244,0.0,0.0,79,0.00,CLR,,0.00,WeatherDisplay:10.37,2013-05-13 04:46:00,
2013-05-12 23:51:00,48.7,42.5,30.18,WSW,244,0.0,0.0,79,0.00,CLR,,0.00,WeatherDisplay:10.37,2013-05-13 04:51:00,
2013-05-12 23:56:00,48.6,42.7,30.18,WSW,244,0.0,0.0,80,0.00,CLR,,0.00,WeatherDisplay:10.37,2013-05-13 04:56:00,